Pagina principale
METAR-TAF:

METAR-TAF

Aeroporti :

Aeroporto di Auckland

Auckland, Nuova Zelanda

latitudine: 37-01S, longitudine: 174-48E, altezza: 7 m

Osservazione

Il bollettino è stato emesso 29 minuti fa, alle 08:00 UTC
Vento 9 kt da sud-ovest
Temperature 11°C
Umidità 82%
Pressione 1011 hPa
Visibilità 10 km o più

METAR: NZAA 180800Z AUTO 22009KT 9999 NCD 11/08 Q1011 NOSIG

Ora: 20:29 (08:29 UTC)

Previsione

Il bollettino è stato emesso 3 ore e 18 minuti fa, alle 05:11 UTC
Previsione valida dal 18 alle 06 UTC al 19 alle 06 UTC
Vento 12 kt da sud-ovest
Visibilità 10 km o più
Poco nuvoloso ad un'altezza di 3000 ft
Evoluzione graduale
dal 18 alle 12 UTC al 18 alle 14 UTC
Vento 2 kt da direzioni variabili

TAF: NZAA 180511Z 1806/1906 23012KT 9999 FEW030 BECMG 1812/1814 VRB02KT

Osservazioni e previsioni meteorologiche di più di 4000 aeroporti (messaggi METAR e TAF).

Le stazioni disponibili sono rappresentate dai dischi gialli e rossi sulla carta.

Puntare il mouse per vedere il nome della stazione.

Clicca sopra per visualizzare le osservazioni e previsioni meteorologiche.

Per cambiare la mappa : fare clic sui pulsanti verdi con una croce nera per ingrandire, il pulsante verde con un trattino per diminuire, o sulla freccia verde per le mappe adiacenti.


METAR-TAF: